Time;durP1;ratioP1;P1;durP2;ratioP2;P2;SDS_P1;SDS_P2;PMS_P1;PMS_P2;Temp;Humidity;BMP_temperature;BMP_pressure;BME280_temperature;BME280_humidity;BME280_pressure;Samples;Min_cycle;Max_cycle;Signal;HPM_P1;HPM_P2
2020/12/28 00:01:08;;;;;;;1.90;1.27;;;4.20;95.30;;;;;;5029414;28;20384;-69
2020/12/28 00:03:33;;;;;;;2.80;1.30;;;4.20;95.40;;;;;;5046338;28;20056;-69
2020/12/28 00:05:59;;;;;;;2.50;1.48;;;4.20;95.70;;;;;;5041209;28;20029;-70
2020/12/28 00:08:24;;;;;;;2.45;1.30;;;4.10;95.90;;;;;;5035970;28;20097;-70
2020/12/28 00:10:50;;;;;;;1.65;1.13;;;4.10;96.00;;;;;;5038122;28;20063;-70
2020/12/28 00:13:16;;;;;;;2.58;1.40;;;4.10;95.90;;;;;;5044937;28;20036;-69
2020/12/28 00:15:41;;;;;;;3.33;1.10;;;4.20;95.80;;;;;;5031442;28;20029;-70
2020/12/28 00:18:07;;;;;;;2.00;1.30;;;4.20;95.70;;;;;;5045866;28;20418;-69
2020/12/28 00:20:32;;;;;;;2.20;1.42;;;4.10;95.90;;;;;;5035436;28;20029;-70
2020/12/28 00:22:58;;;;;;;2.63;1.40;;;4.10;96.20;;;;;;5035177;28;20103;-71
2020/12/28 00:25:25;;;;;;;2.28;1.52;;;4.10;96.20;;;;;;5031892;28;20097;-71
2020/12/28 00:27:51;;;;;;;2.70;1.50;;;4.00;96.60;;;;;;5031583;28;20040;-71
2020/12/28 00:30:17;;;;;;;2.65;1.50;;;4.00;96.80;;;;;;5038142;28;20044;-71
2020/12/28 00:32:43;;;;;;;2.70;1.40;;;4.00;96.80;;;;;;5033120;28;20437;-70
2020/12/28 00:35:10;;;;;;;1.63;1.15;;;3.90;97.00;;;;;;5034439;28;20079;-71
2020/12/28 00:37:38;;;;;;;1.83;1.20;;;3.80;97.20;;;;;;5032073;28;20080;-71
2020/12/28 00:40:06;;;;;;;2.53;1.27;;;3.80;97.30;;;;;;5023198;28;20087;-71
2020/12/28 00:42:32;;;;;;;2.33;1.40;;;3.70;97.80;;;;;;5024451;28;20111;-70
2020/12/28 00:44:58;;;;;;;1.52;1.10;;;3.70;97.80;;;;;;5021266;28;20060;-71
2020/12/28 00:47:24;;;;;;;2.20;1.38;;;3.70;97.90;;;;;;5028930;28;20418;-71
2020/12/28 00:49:50;;;;;;;1.70;1.17;;;3.80;97.50;;;;;;5024093;28;20114;-71
2020/12/28 00:52:15;;;;;;;2.40;1.35;;;3.80;97.40;;;;;;5032652;28;20112;-72
2020/12/28 00:54:41;;;;;;;1.73;1.17;;;3.80;97.50;;;;;;5033662;28;20028;-70
2020/12/28 00:57:07;;;;;;;2.35;1.30;;;3.80;97.60;;;;;;5020582;28;20430;-71
2020/12/28 00:59:32;;;;;;;1.60;1.10;;;3.90;97.40;;;;;;5036989;28;20056;-71
2020/12/28 01:01:59;;;;;;;1.67;1.10;;;3.90;97.40;;;;;;5029136;28;20048;-71
2020/12/28 01:04:25;;;;;;;1.67;1.13;;;4.00;97.30;;;;;;5032925;28;20037;-71
2020/12/28 01:06:51;;;;;;;1.98;1.10;;;3.90;97.80;;;;;;5033730;28;20029;-71
2020/12/28 01:09:17;;;;;;;1.60;1.02;;;3.80;98.00;;;;;;5034167;28;20026;-72
2020/12/28 01:11:43;;;;;;;1.52;1.10;;;3.70;98.00;;;;;;5027918;28;20022;-71
2020/12/28 01:14:12;;;;;;;1.77;1.15;;;3.60;98.00;;;;;;5034248;28;20040;-70
2020/12/28 01:16:38;;;;;;;2.95;1.20;;;3.50;98.00;;;;;;5033716;28;20032;-71
2020/12/28 01:19:04;;;;;;;1.92;1.20;;;3.50;98.00;;;;;;5034108;28;20030;-71
2020/12/28 01:21:30;;;;;;;1.35;1.10;;;3.40;98.00;;;;;;5034553;28;20037;-71
2020/12/28 01:23:56;;;;;;;1.15;0.90;;;3.40;98.00;;;;;;5033482;28;20035;-71
2020/12/28 01:26:25;;;;;;;1.13;1.00;;;3.60;98.00;;;;;;5032864;28;20026;-70
2020/12/28 01:28:50;;;;;;;2.42;1.23;;;3.50;98.00;;;;;;5034342;28;20035;-71
2020/12/28 01:31:16;;;;;;;2.03;1.20;;;3.50;98.00;;;;;;5034552;28;20101;-71
2020/12/28 01:33:42;;;;;;;2.55;1.20;;;3.50;98.00;;;;;;5034571;28;20427;-71
2020/12/28 01:36:09;;;;;;;2.15;1.13;;;3.40;98.00;;;;;;5034666;28;20112;-71
2020/12/28 01:38:34;;;;;;;1.63;1.10;;;3.40;98.00;;;;;;5033698;28;20303;-71
2020/12/28 01:41:00;;;;;;;1.67;1.20;;;3.40;97.90;;;;;;5032736;28;20038;-70
2020/12/28 01:43:27;;;;;;;0.85;0.82;;;3.30;97.70;;;;;;5034466;28;20040;-71
2020/12/28 01:45:53;;;;;;;1.42;0.90;;;3.30;97.70;;;;;;5036642;28;20026;-70
2020/12/28 01:48:19;;;;;;;1.08;0.95;;;3.30;97.60;;;;;;5037291;28;20048;-71
2020/12/28 01:50:45;;;;;;;2.55;1.10;;;3.40;97.20;;;;;;5038035;28;20139;-70
2020/12/28 01:53:11;;;;;;;3.53;1.10;;;3.40;97.10;;;;;;5036852;28;20065;-72
2020/12/28 01:55:38;;;;;;;1.13;0.90;;;3.40;97.20;;;;;;5037146;28;20036;-71
2020/12/28 01:58:04;;;;;;;1.70;1.15;;;3.30;97.60;;;;;;5036853;28;20435;-70
2020/12/28 02:00:30;;;;;;;1.48;1.10;;;3.20;98.00;;;;;;5037735;28;20018;-70
2020/12/28 02:02:56;;;;;;;1.42;1.00;;;3.10;98.00;;;;;;5036330;28;20021;-70
2020/12/28 02:05:21;;;;;;;1.20;1.10;;;3.00;98.00;;;;;;5038070;28;20045;-71
2020/12/28 02:07:53;;;;;;;1.83;1.20;;;2.90;98.00;;;;;;5036877;28;20028;-70
2020/12/28 02:10:19;;;;;;;1.45;1.00;;;2.80;98.00;;;;;;5034394;28;20036;-70
2020/12/28 02:12:45;;;;;;;1.73;1.02;;;2.80;98.00;;;;;;5021618;28;20053;-71
2020/12/28 02:15:10;;;;;;;1.10;1.00;;;2.80;98.00;;;;;;5037255;28;20061;-73
2020/12/28 02:17:36;;;;;;;2.20;1.25;;;2.80;98.00;;;;;;5036283;28;20101;-71
2020/12/28 02:20:03;;;;;;;1.33;1.10;;;2.90;98.00;;;;;;5037327;28;20104;-70
2020/12/28 02:22:28;;;;;;;1.58;1.15;;;3.00;98.00;;;;;;5036820;28;20112;-71
2020/12/28 02:24:54;;;;;;;2.17;1.20;;;3.10;98.00;;;;;;5035876;28;20391;-71
2020/12/28 02:27:20;;;;;;;1.88;1.20;;;3.10;98.00;;;;;;5036324;28;20028;-72
2020/12/28 02:29:45;;;;;;;1.17;1.00;;;3.00;98.00;;;;;;5037245;28;20113;-70
2020/12/28 02:32:11;;;;;;;1.95;1.10;;;3.20;98.00;;;;;;5036711;28;20433;-72
2020/12/28 02:34:37;;;;;;;1.50;1.08;;;3.10;98.00;;;;;;5036395;28;20060;-70
2020/12/28 02:37:02;;;;;;;1.30;1.05;;;3.20;98.00;;;;;;5037071;28;20037;-70
2020/12/28 02:39:28;;;;;;;2.33;1.10;;;3.10;98.00;;;;;;5036707;28;20021;-71
2020/12/28 02:41:53;;;;;;;1.10;0.90;;;3.20;98.00;;;;;;5036340;28;20104;-72
2020/12/28 02:44:19;;;;;;;1.45;1.00;;;3.30;97.90;;;;;;5036618;28;20105;-72
2020/12/28 02:46:45;;;;;;;1.48;1.05;;;3.30;98.00;;;;;;5033861;28;20022;-71
2020/12/28 02:49:16;;;;;;;1.13;0.95;;;3.30;98.00;;;;;;5036680;28;20037;-70
2020/12/28 02:51:41;;;;;;;1.38;1.00;;;3.30;97.70;;;;;;5037359;28;20073;-69
2020/12/28 02:54:07;;;;;;;1.38;1.08;;;3.50;97.10;;;;;;5037040;28;20061;-70
2020/12/28 02:56:35;;;;;;;2.33;1.10;;;3.50;96.70;;;;;;5032023;28;20034;-69
2020/12/28 02:59:01;;;;;;;1.23;1.00;;;3.60;96.30;;;;;;5032759;28;20056;-71
2020/12/28 03:01:27;;;;;;;1.40;1.00;;;3.60;96.20;;;;;;5036118;28;20030;-71
2020/12/28 03:03:52;;;;;;;1.52;1.10;;;3.50;96.60;;;;;;5033719;28;20108;-70
2020/12/28 03:06:20;;;;;;;1.67;1.10;;;3.40;96.90;;;;;;5030964;28;20132;-70
2020/12/28 03:08:45;;;;;;;1.30;1.00;;;3.40;96.80;;;;;;5030888;28;20026;-69
2020/12/28 03:11:11;;;;;;;1.33;1.00;;;3.40;96.80;;;;;;5029870;28;20079;-69
2020/12/28 03:13:37;;;;;;;1.75;1.00;;;3.40;97.20;;;;;;5030741;28;20437;-70
2020/12/28 03:16:03;;;;;;;1.25;0.98;;;3.30;97.50;;;;;;5031449;28;20030;-70
2020/12/28 03:18:28;;;;;;;2.10;1.10;;;3.30;97.70;;;;;;5031493;28;20492;-72
2020/12/28 03:20:55;;;;;;;1.83;1.10;;;3.30;97.90;;;;;;5031442;28;20430;-71
2020/12/28 03:23:21;;;;;;;1.23;1.00;;;3.10;98.00;;;;;;5030592;28;20029;-72
2020/12/28 03:25:47;;;;;;;1.67;1.08;;;3.30;98.00;;;;;;5032076;28;20099;-70
2020/12/28 03:28:12;;;;;;;1.73;1.02;;;3.30;97.90;;;;;;5029558;28;20028;-72
2020/12/28 03:30:38;;;;;;;2.40;1.15;;;3.30;97.90;;;;;;5023320;28;20029;-70
2020/12/28 03:33:04;;;;;;;1.45;1.00;;;3.30;97.80;;;;;;5042224;28;20442;-71
2020/12/28 03:35:29;;;;;;;1.27;0.90;;;3.40;97.90;;;;;;5035217;28;20071;-71
2020/12/28 03:37:55;;;;;;;1.30;1.00;;;3.40;97.90;;;;;;5036426;28;20072;-71
2020/12/28 03:40:20;;;;;;;1.40;1.00;;;3.40;97.80;;;;;;5034916;28;20120;-71
2020/12/28 03:42:46;;;;;;;1.00;0.90;;;3.40;98.00;;;;;;5034428;28;20029;-72
2020/12/28 03:45:12;;;;;;;2.40;1.15;;;3.40;97.80;;;;;;5034483;28;20079;-70
2020/12/28 03:47:37;;;;;;;1.63;1.05;;;3.40;97.70;;;;;;5032553;28;20017;-71
2020/12/28 03:50:03;;;;;;;1.20;0.90;;;3.40;97.60;;;;;;5023380;28;20080;-71
2020/12/28 03:52:28;;;;;;;1.10;1.00;;;3.40;97.70;;;;;;5017665;28;20054;-72
2020/12/28 03:54:54;;;;;;;1.27;1.00;;;3.50;97.60;;;;;;5031358;28;20441;-72
2020/12/28 03:57:20;;;;;;;1.83;0.90;;;3.50;97.50;;;;;;5035278;28;20095;-71
2020/12/28 03:59:45;;;;;;;1.48;1.17;;;3.50;97.60;;;;;;5033953;28;20033;-71
2020/12/28 04:02:11;;;;;;;1.35;0.95;;;3.60;97.50;;;;;;5033588;28;20037;-71
2020/12/28 04:04:40;;;;;;;1.15;0.90;;;3.60;97.50;;;;;;5033295;28;20029;-71
2020/12/28 04:07:05;;;;;;;1.50;1.08;;;3.60;97.60;;;;;;5033083;28;20021;-72
2020/12/28 04:09:31;;;;;;;1.90;1.10;;;3.50;97.80;;;;;;5051870;28;20025;-70
2020/12/28 04:11:57;;;;;;;1.98;1.10;;;3.40;97.80;;;;;;5029673;28;20537;-70
2020/12/28 04:14:23;;;;;;;1.15;0.93;;;3.40;97.90;;;;;;5027046;28;20026;-71
2020/12/28 04:16:48;;;;;;;1.15;0.90;;;3.40;97.90;;;;;;5024073;28;20025;-70
2020/12/28 04:19:14;;;;;;;1.27;1.00;;;3.30;98.00;;;;;;5035179;28;20036;-71
2020/12/28 04:21:40;;;;;;;2.28;1.08;;;3.20;98.00;;;;;;5035754;28;20021;-70
2020/12/28 04:24:05;;;;;;;1.58;1.00;;;3.10;98.00;;;;;;5034017;28;20033;-71
2020/12/28 04:26:31;;;;;;;1.15;0.90;;;3.00;98.00;;;;;;5030075;28;20021;-71
2020/12/28 04:28:59;;;;;;;1.20;1.00;;;3.00;98.00;;;;;;5022352;28;20318;-70
2020/12/28 04:31:25;;;;;;;1.27;0.93;;;2.90;98.00;;;;;;5034926;28;20027;-70
2020/12/28 04:33:50;;;;;;;1.30;1.00;;;2.80;98.00;;;;;;5043476;28;20025;-71
2020/12/28 04:36:16;;;;;;;2.97;1.23;;;2.80;98.00;;;;;;5034962;28;20022;-71
2020/12/28 04:38:42;;;;;;;1.52;1.10;;;2.80;98.00;;;;;;5027611;28;20032;-70
2020/12/28 04:41:08;;;;;;;1.27;1.00;;;2.80;98.00;;;;;;5018842;28;20025;-70
2020/12/28 04:43:33;;;;;;;1.00;0.90;;;2.80;98.00;;;;;;5015523;28;20018;-71
2020/12/28 04:46:03;;;;;;;2.00;1.10;;;2.80;98.00;;;;;;5032191;28;20101;-71
2020/12/28 04:48:32;;;;;;;1.63;1.15;;;2.70;98.00;;;;;;5030543;28;20029;-71
2020/12/28 04:50:59;;;;;;;2.30;1.25;;;2.80;98.00;;;;;;5034716;28;20080;-71
2020/12/28 04:53:26;;;;;;;1.50;1.10;;;2.90;98.00;;;;;;5016407;28;20029;-72
2020/12/28 04:55:52;;;;;;;1.13;0.90;;;2.90;98.00;;;;;;5030372;28;20055;-71
2020/12/28 04:58:18;;;;;;;1.30;0.93;;;2.90;98.00;;;;;;5032672;28;20041;-71
2020/12/28 05:00:46;;;;;;;1.75;1.00;;;2.90;98.00;;;;;;5034360;28;20029;-71
2020/12/28 05:03:13;;;;;;;1.67;1.17;;;3.00;98.00;;;;;;5028264;28;20104;-69
2020/12/28 05:05:47;;;;;;;1.52;1.13;;;3.00;98.00;;;;;;5034786;28;20096;-71
2020/12/28 05:08:13;;;;;;;1.35;1.10;;;3.10;98.00;;;;;;5033866;28;20029;-71
2020/12/28 05:10:39;;;;;;;1.52;1.00;;;3.00;98.00;;;;;;5041946;28;20082;-70
2020/12/28 05:13:13;;;;;;;1.67;1.00;;;3.10;98.00;;;;;;5034512;28;20331;-71
2020/12/28 05:15:55;;;;;;;1.63;1.05;;;3.00;98.00;;;;;;5033105;28;20060;-70
2020/12/28 05:18:21;;;;;;;1.67;1.13;;;3.00;98.00;;;;;;5030084;28;20116;-70
2020/12/28 05:20:49;;;;;;;1.38;1.10;;;2.90;98.00;;;;;;5027173;28;20377;-70
2020/12/28 05:23:15;;;;;;;1.67;1.00;;;2.80;98.00;;;;;;5038141;28;20049;-71
2020/12/28 05:25:51;;;;;;;1.80;1.17;;;2.70;98.00;;;;;;5026951;28;20025;-71
2020/12/28 05:28:27;;;;;;;1.70;1.20;;;2.60;98.00;;;;;;5036942;28;21734;-71
2020/12/28 05:30:59;;;;;;;1.70;1.10;;;2.60;98.00;;;;;;5034510;28;20026;-70
2020/12/28 05:33:31;;;;;;;1.77;1.23;;;2.50;98.00;;;;;;5042979;28;20426;-69
2020/12/28 05:36:00;;;;;;;1.90;1.20;;;2.50;98.00;;;;;;5034705;28;20120;-70
2020/12/28 05:38:27;;;;;;;1.75;1.20;;;2.40;98.00;;;;;;5034478;28;20500;-71
2020/12/28 05:41:04;;;;;;;1.60;1.13;;;2.40;98.00;;;;;;5017683;28;20519;-70
2020/12/28 05:43:30;;;;;;;8.75;4.47;;;2.30;98.00;;;;;;5024380;28;20105;-71
2020/12/28 05:45:56;;;;;;;5.18;2.63;;;2.20;98.00;;;;;;5026178;28;20075;-70
2020/12/28 05:48:24;;;;;;;2.78;1.40;;;2.10;98.00;;;;;;5037361;28;20021;-71
2020/12/28 05:50:57;;;;;;;3.38;1.75;;;2.10;98.00;;;;;;5025790;28;20331;-69
2020/12/28 05:53:24;;;;;;;4.18;2.08;;;2.10;98.00;;;;;;5033466;28;20026;-70
2020/12/28 05:55:54;;;;;;;7.57;3.45;;;2.10;98.00;;;;;;5036512;28;20311;-70
2020/12/28 05:58:22;;;;;;;4.63;2.22;;;2.10;98.00;;;;;;5030957;28;20342;-69
2020/12/28 06:00:49;;;;;;;1.92;1.30;;;2.10;98.00;;;;;;5023918;28;20128;-69
2020/12/28 06:03:24;;;;;;;2.97;1.40;;;2.00;98.00;;;;;;5036440;28;20124;-69
2020/12/28 06:05:54;;;;;;;3.20;1.80;;;2.00;98.00;;;;;;5033782;28;20028;-70
2020/12/28 06:08:20;;;;;;;4.05;2.05;;;2.00;98.00;;;;;;5036394;28;20033;-69
2020/12/28 06:10:46;;;;;;;4.70;2.40;;;2.10;98.00;;;;;;5017057;28;20033;-70
2020/12/28 06:13:24;;;;;;;5.20;3.03;;;2.10;98.00;;;;;;5023365;28;20563;-71
2020/12/28 06:16:01;;;;;;;4.13;2.83;;;2.10;98.00;;;;;;5034698;28;20028;-71
2020/12/28 06:18:28;;;;;;;3.28;1.55;;;2.00;98.00;;;;;;5036137;28;20013;-71
2020/12/28 06:20:54;;;;;;;2.10;1.30;;;2.00;98.00;;;;;;5036171;28;20029;-70
2020/12/28 06:23:27;;;;;;;2.97;1.90;;;2.00;98.00;;;;;;5037368;28;20029;-71
2020/12/28 06:25:56;;;;;;;1.67;1.20;;;2.00;98.00;;;;;;5034123;28;20033;-71
2020/12/28 06:28:25;;;;;;;2.20;1.40;;;1.90;98.00;;;;;;5028932;28;20056;-70
2020/12/28 06:30:52;;;;;;;4.97;2.97;;;1.90;98.00;;;;;;5026478;28;20476;-71
2020/12/28 06:33:17;;;;;;;2.90;1.60;;;2.00;98.00;;;;;;5035064;28;20032;-72
2020/12/28 06:35:43;;;;;;;1.48;1.10;;;2.00;98.00;;;;;;5037286;28;20418;-71
2020/12/28 06:38:11;;;;;;;1.50;1.20;;;2.10;98.00;;;;;;5023601;28;20108;-71
2020/12/28 06:40:38;;;;;;;2.10;1.30;;;2.10;98.00;;;;;;5015727;28;20057;-71
2020/12/28 06:43:18;;;;;;;1.15;1.00;;;2.10;98.00;;;;;;5026037;28;20033;-71
2020/12/28 06:45:52;;;;;;;1.85;1.05;;;2.10;98.00;;;;;;5032309;28;20057;-71
2020/12/28 06:48:24;;;;;;;1.40;1.10;;;2.10;98.00;;;;;;5025811;28;20033;-71
2020/12/28 06:50:52;;;;;;;1.30;1.00;;;2.10;98.00;;;;;;5018357;28;20046;-71
2020/12/28 06:53:27;;;;;;;0.93;0.90;;;2.30;98.00;;;;;;5036391;28;20083;-72
2020/12/28 06:56:08;;;;;;;1.33;0.90;;;2.30;98.00;;;;;;5034693;28;20018;-72
2020/12/28 06:58:36;;;;;;;1.20;1.00;;;2.20;98.00;;;;;;5031004;28;20021;-72
2020/12/28 07:01:05;;;;;;;1.15;1.00;;;2.20;98.00;;;;;;5036190;28;20263;-73
2020/12/28 07:03:31;;;;;;;1.00;0.95;;;2.20;98.00;;;;;;5032045;28;20029;-72
2020/12/28 07:06:05;;;;;;;2.20;1.17;;;2.20;98.00;;;;;;5031310;28;20101;-72
2020/12/28 07:08:39;;;;;;;4.10;1.73;;;2.20;98.00;;;;;;5026433;28;20091;-72
2020/12/28 07:11:05;;;;;;;2.15;1.27;;;2.10;98.00;;;;;;5031831;28;20041;-72
2020/12/28 07:13:32;;;;;;;4.22;2.20;;;2.10;98.00;;;;;;5032761;28;20037;-72
2020/12/28 07:16:07;;;;;;;3.97;2.35;;;2.10;98.00;;;;;;5034233;28;20030;-72
2020/12/28 07:18:34;;;;;;;2.75;1.40;;;2.10;98.00;;;;;;5024260;28;20028;-72
2020/12/28 07:21:04;;;;;;;1.42;1.08;;;2.10;98.00;;;;;;5036068;28;20079;-71
2020/12/28 07:23:32;;;;;;;1.48;1.10;;;2.10;98.00;;;;;;5021314;28;20034;-71
2020/12/28 07:26:12;;;;;;;1.52;1.17;;;2.10;98.00;;;;;;5034978;28;20030;-72
2020/12/28 07:28:40;;;;;;;1.55;1.10;;;2.00;98.00;;;;;;5024522;28;20051;-71
2020/12/28 07:31:07;;;;;;;3.58;1.30;;;2.10;98.00;;;;;;5034861;28;20021;-71
2020/12/28 07:33:34;;;;;;;1.58;1.10;;;2.10;98.00;;;;;;5025282;28;20327;-71
2020/12/28 07:36:05;;;;;;;2.58;1.40;;;2.00;98.00;;;;;;5015729;28;20083;-70
2020/12/28 07:38:31;;;;;;;2.50;1.60;;;1.90;98.00;;;;;;5022654;28;20334;-70
2020/12/28 07:40:57;;;;;;;3.25;2.20;;;1.90;98.00;;;;;;5022884;28;20104;-70
2020/12/28 07:43:23;;;;;;;2.58;1.50;;;1.90;98.00;;;;;;5019110;28;20179;-71
2020/12/28 07:45:50;;;;;;;2.03;1.30;;;1.90;98.00;;;;;;5016722;28;20469;-71
2020/12/28 07:48:19;;;;;;;2.33;1.38;;;2.00;98.00;;;;;;5024262;28;20144;-70
2020/12/28 07:50:51;;;;;;;2.38;1.40;;;2.10;98.00;;;;;;5035343;28;20434;-71
2020/12/28 07:53:19;;;;;;;7.32;3.55;;;2.10;98.00;;;;;;5028882;28;20022;-70
2020/12/28 07:56:06;;;;;;;1.88;1.20;;;2.10;98.00;;;;;;5015332;28;20026;-71
2020/12/28 07:59:06;;;;;;;3.33;1.33;;;2.10;98.00;;;;;;5034462;28;20025;-70
2020/12/28 08:01:45;;;;;;;1.85;1.15;;;2.20;98.00;;;;;;5026770;28;20120;-71
2020/12/28 08:04:20;;;;;;;1.85;1.20;;;2.20;98.00;;;;;;5025462;28;20061;-70
2020/12/28 08:06:46;;;;;;;2.80;1.70;;;2.20;98.00;;;;;;5036077;28;20022;-71
2020/12/28 08:09:20;;;;;;;2.22;1.45;;;2.20;98.00;;;;;;5032596;28;20021;-71
2020/12/28 08:11:57;;;;;;;4.40;2.53;;;2.20;98.00;;;;;;5029245;28;20045;-72
2020/12/28 08:14:22;;;;;;;3.10;1.90;;;2.20;98.00;;;;;;5034676;28;20066;-71
2020/12/28 08:16:49;;;;;;;1.95;1.40;;;2.30;98.00;;;;;;5033480;28;20105;-70
2020/12/28 08:19:25;;;;;;;1.83;1.23;;;2.30;98.00;;;;;;5032024;28;20738;-71
2020/12/28 08:21:50;;;;;;;2.05;1.10;;;2.30;98.00;;;;;;5030910;28;20041;-70
2020/12/28 08:24:17;;;;;;;1.58;1.10;;;2.40;98.00;;;;;;5035107;28;20036;-69
2020/12/28 08:26:44;;;;;;;1.70;1.10;;;2.50;98.00;;;;;;5029183;28;20025;-72
2020/12/28 08:29:13;;;;;;;1.30;1.00;;;2.60;98.00;;;;;;5033800;28;20434;-69
2020/12/28 08:31:39;;;;;;;1.35;1.08;;;2.60;98.00;;;;;;5035360;28;20178;-71
2020/12/28 08:34:08;;;;;;;1.20;0.90;;;2.70;98.00;;;;;;5029187;28;20025;-71
2020/12/28 08:36:36;;;;;;;1.52;1.00;;;2.70;98.00;;;;;;5025606;28;20029;-71
2020/12/28 08:39:11;;;;;;;1.73;0.95;;;2.80;98.00;;;;;;5026753;28;20092;-71
2020/12/28 08:41:37;;;;;;;1.77;1.15;;;2.70;98.00;;;;;;5022361;28;20037;-70
2020/12/28 08:44:02;;;;;;;2.22;1.20;;;2.70;98.00;;;;;;5033789;28;20319;-71
2020/12/28 08:46:28;;;;;;;2.53;1.30;;;2.60;98.00;;;;;;5021414;28;20029;-72
2020/12/28 08:48:57;;;;;;;1.95;1.40;;;2.60;98.00;;;;;;5023518;28;20035;-70
2020/12/28 08:51:22;;;;;;;2.63;1.50;;;2.60;98.00;;;;;;5033654;28;20052;-71
2020/12/28 08:53:51;;;;;;;3.47;1.77;;;2.60;98.00;;;;;;5033657;28;20045;-70
2020/12/28 08:56:18;;;;;;;1.83;1.45;;;2.60;98.00;;;;;;5047895;28;20028;-70
2020/12/28 08:58:44;;;;;;;2.75;1.65;;;2.60;98.00;;;;;;5054092;28;20047;-70
2020/12/28 09:01:10;;;;;;;3.28;1.90;;;2.60;98.00;;;;;;5034959;28;20034;-70
2020/12/28 09:03:37;;;;;;;3.42;2.00;;;2.60;98.00;;;;;;5034978;28;20041;-70
2020/12/28 09:06:07;;;;;;;10.18;5.50;;;2.50;98.00;;;;;;5034597;28;20029;-70
2020/12/28 09:08:35;;;;;;;5.57;2.50;;;2.50;98.00;;;;;;5033941;28;20354;-72
2020/12/28 09:11:00;;;;;;;6.13;4.28;;;2.40;98.00;;;;;;5032628;28;20028;-72
2020/12/28 09:13:26;;;;;;;4.57;2.60;;;2.30;98.00;;;;;;5034827;28;20308;-72
2020/12/28 09:15:52;;;;;;;4.28;2.63;;;2.20;98.00;;;;;;5033954;28;20033;-72
2020/12/28 09:18:17;;;;;;;4.57;3.03;;;2.20;98.00;;;;;;5034829;28;20302;-71
2020/12/28 09:20:44;;;;;;;13.65;6.45;;;2.10;98.00;;;;;;5034834;28;20079;-71
2020/12/28 09:23:09;;;;;;;10.52;7.32;;;2.10;98.00;;;;;;5033736;28;20083;-72
2020/12/28 09:25:35;;;;;;;8.13;5.00;;;2.10;98.00;;;;;;5043310;28;20107;-71
2020/12/28 09:28:00;;;;;;;5.28;3.53;;;2.10;98.00;;;;;;5051126;28;20040;-71
2020/12/28 09:30:26;;;;;;;5.60;3.28;;;2.10;98.00;;;;;;5050494;28;20032;-72
2020/12/28 09:32:52;;;;;;;4.95;3.00;;;2.20;98.00;;;;;;5033810;28;20017;-71
2020/12/28 09:35:20;;;;;;;4.30;2.70;;;2.20;98.00;;;;;;5034832;28;20037;-72
2020/12/28 09:37:46;;;;;;;4.25;2.92;;;2.30;98.00;;;;;;5033650;28;20323;-72
2020/12/28 09:40:11;;;;;;;4.70;3.03;;;2.30;98.00;;;;;;5032898;28;20038;-71
2020/12/28 09:42:38;;;;;;;4.95;3.35;;;2.30;98.00;;;;;;5034544;28;20026;-71
2020/12/28 09:45:35;;;;;;;5.07;3.53;;;2.30;98.00;;;;;;5035350;28;20053;-72
2020/12/28 09:47:50;;;;;;;5.45;3.55;;;2.30;98.00;;;;;;5054177;28;20051;-71
2020/12/28 09:50:16;;;;;;;6.35;3.85;;;2.30;98.00;;;;;;5045350;28;20057;-72
2020/12/28 09:52:45;;;;;;;5.80;3.38;;;2.30;98.00;;;;;;5033646;28;20029;-72
2020/12/28 09:55:11;;;;;;;10.57;3.53;;;2.30;98.00;;;;;;5038855;28;20037;-72
2020/12/28 09:57:37;;;;;;;6.50;3.63;;;2.30;98.00;;;;;;5034673;28;20419;-71
2020/12/28 10:00:04;;;;;;;4.50;3.20;;;2.30;98.00;;;;;;5034352;28;20033;-70
2020/12/28 10:02:33;;;;;;;4.78;3.30;;;2.30;98.00;;;;;;5034101;28;20043;-71
2020/12/28 10:04:58;;;;;;;3.83;2.60;;;2.30;98.00;;;;;;5034541;28;20084;-72
2020/12/28 10:07:24;;;;;;;3.63;2.40;;;2.30;98.00;;;;;;5037917;28;20310;-71
2020/12/28 10:09:49;;;;;;;3.10;2.28;;;2.40;98.00;;;;;;5037019;28;20025;-72
2020/12/28 10:12:15;;;;;;;4.25;2.35;;;2.40;98.00;;;;;;5037565;28;20036;-70
2020/12/28 10:14:41;;;;;;;3.78;2.47;;;2.50;98.00;;;;;;5047863;28;20095;-71
2020/12/28 10:17:06;;;;;;;6.25;2.50;;;2.50;98.00;;;;;;5042061;28;20041;-71
2020/12/28 10:19:32;;;;;;;3.22;2.00;;;2.50;98.00;;;;;;5036628;28;20098;-71
2020/12/28 10:22:01;;;;;;;3.78;2.03;;;2.50;98.00;;;;;;5037488;28;20025;-72
2020/12/28 10:24:27;;;;;;;4.15;2.38;;;2.50;98.00;;;;;;5037407;28;20419;-72
2020/12/28 10:26:52;;;;;;;3.55;2.08;;;2.50;98.00;;;;;;5035385;28;20036;-72
2020/12/28 10:29:18;;;;;;;2.78;1.73;;;2.50;98.00;;;;;;5037819;28;20403;-71
2020/12/28 10:31:43;;;;;;;2.78;1.73;;;2.50;98.00;;;;;;5037412;28;20021;-71
2020/12/28 10:34:12;;;;;;;3.22;2.13;;;2.50;98.00;;;;;;5036425;28;20029;-71
2020/12/28 10:36:38;;;;;;;7.80;2.08;;;2.50;98.00;;;;;;5036594;28;20327;-70
2020/12/28 10:39:04;;;;;;;3.00;1.90;;;2.50;98.00;;;;;;5036116;28;20029;-71
2020/12/28 10:41:35;;;;;;;2.97;1.90;;;2.50;98.00;;;;;;5036506;28;20112;-71
2020/12/28 10:44:01;;;;;;;3.95;1.95;;;2.50;98.00;;;;;;5037267;28;20030;-70
2020/12/28 10:46:26;;;;;;;3.70;2.17;;;2.50;98.00;;;;;;5037779;28;20030;-71
2020/12/28 10:48:52;;;;;;;2.88;1.75;;;2.50;98.00;;;;;;5045394;28;20048;-71
2020/12/28 10:51:19;;;;;;;3.78;2.00;;;2.60;98.00;;;;;;5037098;28;20056;-71
2020/12/28 10:53:44;;;;;;;3.08;1.70;;;2.60;98.00;;;;;;5036402;28;20072;-72
2020/12/28 10:56:10;;;;;;;4.07;2.45;;;2.60;98.00;;;;;;5036280;28;20029;-70
2020/12/28 10:58:36;;;;;;;3.88;2.38;;;2.60;98.00;;;;;;5036888;28;20040;-70
2020/12/28 11:01:07;;;;;;;4.80;2.25;;;2.60;98.00;;;;;;5036511;28;20533;-72
2020/12/28 11:03:33;;;;;;;4.03;1.85;;;2.60;98.00;;;;;;5037087;28;20032;-71
2020/12/28 11:06:02;;;;;;;2.90;1.92;;;2.60;98.00;;;;;;5035973;28;20025;-70
2020/12/28 11:08:29;;;;;;;3.83;2.05;;;2.60;98.00;;;;;;5037096;28;20037;-70
2020/12/28 11:10:55;;;;;;;3.55;2.20;;;2.60;98.00;;;;;;5035504;28;20026;-71
2020/12/28 11:13:20;;;;;;;3.47;1.90;;;2.60;98.00;;;;;;5040341;28;20017;-71
2020/12/28 11:15:46;;;;;;;5.53;2.40;;;2.60;98.00;;;;;;5034876;28;20096;-72
2020/12/28 11:18:11;;;;;;;3.88;1.95;;;2.60;98.00;;;;;;5034545;28;20025;-72
2020/12/28 11:20:37;;;;;;;7.50;2.13;;;2.60;98.00;;;;;;5035991;28;20444;-72
2020/12/28 11:23:03;;;;;;;3.92;2.25;;;2.60;98.00;;;;;;5036605;28;20079;-69
2020/12/28 11:25:28;;;;;;;2.85;1.90;;;2.70;98.00;;;;;;5035330;28;20057;-71
2020/12/28 11:27:54;;;;;;;3.40;1.92;;;2.70;98.00;;;;;;5034967;28;20033;-71
2020/12/28 11:30:26;;;;;;;3.28;1.70;;;2.80;98.00;;;;;;5036047;28;20028;-70
2020/12/28 11:33:00;;;;;;;4.38;2.20;;;2.80;98.00;;;;;;5035403;28;20427;-71
2020/12/28 11:35:26;;;;;;;3.60;2.08;;;2.80;98.00;;;;;;5036467;28;20068;-69
2020/12/28 11:37:52;;;;;;;4.05;2.10;;;2.80;98.00;;;;;;5036514;28;20355;-71
2020/12/28 11:40:17;;;;;;;5.95;3.30;;;2.80;98.00;;;;;;5035086;28;20029;-70
2020/12/28 11:42:43;;;;;;;4.60;2.60;;;2.80;98.00;;;;;;5035259;28;20032;-72
2020/12/28 11:45:09;;;;;;;4.50;2.92;;;2.70;98.00;;;;;;5038146;28;20026;-70
2020/12/28 11:47:36;;;;;;;5.15;2.50;;;2.70;98.00;;;;;;5036182;28;20022;-72
2020/12/28 11:50:04;;;;;;;3.50;2.22;;;2.80;98.00;;;;;;5035810;28;20022;-72
2020/12/28 11:52:29;;;;;;;3.53;2.08;;;2.80;98.00;;;;;;5036346;28;20028;-70
2020/12/28 11:54:55;;;;;;;2.90;1.80;;;2.80;98.00;;;;;;5044352;28;20028;-69
2020/12/28 11:57:21;;;;;;;4.22;2.33;;;2.80;98.00;;;;;;5043629;28;20075;-70
2020/12/28 11:59:46;;;;;;;3.67;2.20;;;2.80;98.00;;;;;;5053280;28;20038;-69
2020/12/28 12:02:12;;;;;;;4.80;2.67;;;2.80;98.00;;;;;;5035761;28;20033;-72
2020/12/28 12:04:51;;;;;;;4.05;2.42;;;2.80;98.00;;;;;;5036007;28;20033;-72
2020/12/28 12:07:22;;;;;;;4.43;2.63;;;2.80;98.00;;;;;;5035905;28;20056;-71
2020/12/28 12:09:49;;;;;;;5.68;3.00;;;2.80;98.00;;;;;;5035410;28;20033;-71
2020/12/28 12:12:17;;;;;;;4.30;2.70;;;2.80;98.00;;;;;;5035706;28;20025;-72
2020/12/28 12:14:43;;;;;;;4.43;2.45;;;2.80;98.00;;;;;;5034180;28;20087;-72
2020/12/28 12:17:08;;;;;;;5.47;2.72;;;2.80;98.00;;;;;;5035577;28;20033;-72
2020/12/28 12:19:35;;;;;;;4.85;2.30;;;2.90;98.00;;;;;;5035665;28;20033;-71
2020/12/28 12:22:01;;;;;;;2.38;1.58;;;3.00;98.00;;;;;;5034996;28;20032;-72
2020/12/28 12:24:35;;;;;;;2.53;1.55;;;3.00;98.00;;;;;;5036442;28;20033;-72
2020/12/28 12:27:01;;;;;;;2.70;1.60;;;3.10;98.00;;;;;;5034345;28;20422;-72
2020/12/28 12:29:26;;;;;;;2.00;1.45;;;3.20;98.00;;;;;;5034533;28;20108;-72
2020/12/28 12:31:52;;;;;;;1.92;1.30;;;3.20;98.00;;;;;;5035689;28;20017;-71
2020/12/28 12:34:19;;;;;;;2.13;1.20;;;3.10;98.00;;;;;;5035314;28;20084;-71
2020/12/28 12:36:45;;;;;;;2.75;1.40;;;3.10;98.00;;;;;;5035347;28;20029;-72
2020/12/28 12:39:11;;;;;;;1.80;1.20;;;3.00;98.00;;;;;;5034281;28;20025;-72
2020/12/28 12:41:37;;;;;;;1.50;1.10;;;2.90;98.00;;;;;;5033145;28;20057;-72
2020/12/28 12:44:03;;;;;;;2.25;1.35;;;2.90;98.00;;;;;;5035202;28;20063;-71
2020/12/28 12:46:29;;;;;;;2.22;1.40;;;2.90;98.00;;;;;;5035379;28;20026;-72
2020/12/28 12:48:54;;;;;;;1.83;1.20;;;3.00;98.00;;;;;;5034771;28;20061;-72
2020/12/28 12:51:22;;;;;;;3.38;1.30;;;3.10;98.00;;;;;;5035038;28;20083;-72
2020/12/28 12:53:48;;;;;;;2.13;1.40;;;3.10;98.00;;;;;;5034977;28;20415;-71
2020/12/28 12:56:18;;;;;;;1.48;1.05;;;3.10;98.00;;;;;;5053008;28;20040;-71
2020/12/28 12:58:43;;;;;;;1.95;1.13;;;3.10;98.00;;;;;;5046846;28;20441;-71